Time;durP1;ratioP1;P1;durP2;ratioP2;P2;SDS_P1;SDS_P2;PMS_P1;PMS_P2;Temp;Humidity;BMP_temperature;BMP_pressure;BME280_temperature;BME280_humidity;BME280_pressure;Samples;Min_cycle;Max_cycle;Signal;HPM_P1;HPM_P2
2023/08/09 00:02:45;;;;;;;5.80;2.60;;;;;;;15.30;100.00;100330.19;4887080;29;20191;-73
2023/08/09 00:05:49;;;;;;;5.18;1.90;;;;;;;15.21;100.00;100330.06;4888890;29;20072;-73
2023/08/09 00:08:52;;;;;;;4.05;1.65;;;;;;;15.22;100.00;100331.72;4889500;29;20415;-73
2023/08/09 00:11:55;;;;;;;3.85;1.85;;;;;;;15.27;100.00;100326.97;4890423;29;20052;-73
2023/08/09 00:15:00;;;;;;;5.78;2.15;;;;;;;15.21;100.00;100319.50;4879045;29;20418;-73
2023/08/09 00:18:04;;;;;;;7.15;1.92;;;;;;;15.28;100.00;100315.47;4887391;29;20055;-73
2023/08/09 00:21:07;;;;;;;4.95;2.30;;;;;;;15.27;100.00;100308.53;4888161;29;20043;-73
2023/08/09 00:24:10;;;;;;;5.85;2.28;;;;;;;15.26;100.00;100306.84;4886779;29;20040;-73
2023/08/09 00:27:14;;;;;;;5.32;2.20;;;;;;;15.30;100.00;100297.75;4889845;29;20162;-73
2023/08/09 00:30:17;;;;;;;5.40;1.90;;;;;;;15.28;100.00;100294.38;4890735;29;20105;-73
2023/08/09 00:33:21;;;;;;;4.40;2.15;;;;;;;15.16;100.00;100290.91;4890595;29;20095;-73
2023/08/09 00:36:24;;;;;;;6.55;2.40;;;;;;;15.16;100.00;100300.59;4875411;29;20063;-73
2023/08/09 00:39:28;;;;;;;5.22;2.53;;;;;;;15.11;100.00;100301.75;4887792;29;20158;-74
2023/08/09 00:42:32;;;;;;;7.32;2.60;;;;;;;15.18;100.00;100301.31;4888691;29;20113;-75
2023/08/09 00:45:42;;;;;;;4.43;1.98;;;;;;;15.21;100.00;100303.72;4878251;29;20066;-74
2023/08/09 00:48:46;;;;;;;6.53;2.65;;;;;;;15.25;100.00;100313.06;4877763;29;20052;-73
2023/08/09 00:51:51;;;;;;;5.82;1.98;;;;;;;15.30;100.00;100316.19;4889363;29;20109;-75
2023/08/09 00:54:55;;;;;;;6.95;2.05;;;;;;;15.23;100.00;100321.09;4877599;29;20120;-74
2023/08/09 00:57:58;;;;;;;5.35;1.95;;;;;;;15.18;100.00;100319.75;4889443;29;20574;-74
2023/08/09 01:01:02;;;;;;;6.57;2.38;;;;;;;15.21;100.00;100325.63;4886315;29;20051;-74
2023/08/09 01:04:06;;;;;;;5.20;2.13;;;;;;;15.22;100.00;100315.91;4877485;29;20052;-74
2023/08/09 01:07:13;;;;;;;7.22;1.83;;;;;;;15.27;100.00;100333.06;4887835;29;20087;-73
2023/08/09 01:10:31;;;;;;;4.07;1.90;;;;;;;15.32;100.00;100340.63;4889402;29;20125;-72
2023/08/09 01:13:38;;;;;;;4.25;2.10;;;;;;;15.24;100.00;100341.19;4888922;29;20064;-73
2023/08/09 01:16:45;;;;;;;4.35;1.98;;;;;;;15.30;100.00;100332.00;4889939;29;20052;-73
2023/08/09 01:19:52;;;;;;;4.15;1.90;;;;;;;15.28;100.00;100318.97;4887465;29;20043;-72
2023/08/09 01:23:03;;;;;;;4.25;2.30;;;;;;;15.21;100.00;100328.25;4888949;29;20116;-72
2023/08/09 01:26:06;;;;;;;6.03;2.15;;;;;;;15.11;100.00;100317.56;4886850;29;20149;-72
2023/08/09 01:29:10;;;;;;;4.65;1.77;;;;;;;15.11;100.00;100314.94;4865692;29;20040;-72
2023/08/09 01:32:14;;;;;;;5.35;2.10;;;;;;;15.08;100.00;100315.16;4889022;29;20094;-73
2023/08/09 01:36:07;;;;;;;5.78;2.97;;;;;;;15.13;100.00;100308.72;4888994;29;20095;-73
2023/08/09 01:39:16;;;;;;;3.10;1.75;;;;;;;15.20;100.00;100307.31;4874755;29;20043;-73
2023/08/09 01:42:20;;;;;;;6.68;2.38;;;;;;;15.13;100.00;100306.09;4866175;29;20052;-74
2023/08/09 01:45:25;;;;;;;7.22;2.00;;;;;;;15.14;100.00;100298.06;4879567;29;20052;-73
2023/08/09 01:48:28;;;;;;;8.98;2.33;;;;;;;15.07;100.00;100296.84;4879349;29;20056;-73
2023/08/09 01:51:32;;;;;;;4.85;2.22;;;;;;;15.13;100.00;100300.81;4879371;29;20091;-73
2023/08/09 01:54:36;;;;;;;6.63;2.22;;;;;;;15.17;100.00;100305.75;4867919;29;20128;-73
2023/08/09 01:57:40;;;;;;;5.65;2.00;;;;;;;15.16;100.00;100311.13;4889263;29;20059;-73
2023/08/09 02:00:45;;;;;;;5.50;2.33;;;;;;;15.16;100.00;100306.69;4867978;29;20075;-73
2023/08/09 02:03:49;;;;;;;9.73;2.40;;;;;;;15.19;100.00;100316.13;4879159;29;20168;-73
2023/08/09 02:06:52;;;;;;;7.18;3.05;;;;;;;15.18;100.00;100309.22;4879411;29;20519;-73
2023/08/09 02:09:55;;;;;;;4.45;2.28;;;;;;;15.25;100.00;100310.41;4866911;29;20092;-73
2023/08/09 02:13:00;;;;;;;6.80;2.35;;;;;;;15.25;100.00;100315.69;4850934;29;20053;-73
2023/08/09 02:16:05;;;;;;;4.10;2.22;;;;;;;15.21;100.00;100327.41;4841610;29;20689;-73
2023/08/09 02:19:09;;;;;;;4.60;1.92;;;;;;;15.17;100.00;100320.72;4840088;29;20074;-73
2023/08/09 02:22:17;;;;;;;6.82;2.72;;;;;;;15.09;100.00;100319.50;4840946;29;20151;-73
2023/08/09 02:25:23;;;;;;;5.15;2.92;;;;;;;15.19;100.00;100316.13;4842145;29;20098;-73
2023/08/09 02:28:27;;;;;;;5.50;2.38;;;;;;;15.11;100.00;100309.66;4841826;29;20052;-72
2023/08/09 02:31:33;;;;;;;6.65;2.38;;;;;;;15.05;100.00;100304.84;4841328;29;20408;-72
2023/08/09 02:34:38;;;;;;;6.55;3.10;;;;;;;15.06;100.00;100309.19;4851535;29;20057;-73
2023/08/09 02:37:41;;;;;;;6.15;2.75;;;;;;;15.11;100.00;100296.50;4840832;29;20077;-73
2023/08/09 02:40:44;;;;;;;4.65;2.30;;;;;;;15.22;100.00;100302.75;4840809;29;20049;-73
2023/08/09 02:43:48;;;;;;;6.70;2.33;;;;;;;15.23;100.00;100293.91;4840578;29;20068;-72
2023/08/09 02:46:53;;;;;;;4.65;2.35;;;;;;;15.26;100.00;100297.16;4841769;29;20048;-73
2023/08/09 02:49:56;;;;;;;5.95;2.38;;;;;;;15.24;100.00;100301.69;4841551;29;20048;-73
2023/08/09 02:53:03;;;;;;;8.85;2.08;;;;;;;15.28;100.00;100294.38;4841582;29;20049;-73
2023/08/09 02:56:06;;;;;;;4.70;2.30;;;;;;;15.26;100.00;100297.16;4841347;29;20080;-73
2023/08/09 02:59:11;;;;;;;4.50;2.60;;;;;;;15.25;100.00;100303.38;4841507;29;20040;-73
2023/08/09 03:02:15;;;;;;;6.10;2.40;;;;;;;15.25;100.00;100298.13;4839647;29;20076;-73
2023/08/09 03:05:18;;;;;;;6.07;2.13;;;;;;;15.25;100.00;100308.66;4822517;29;20089;-73
2023/08/09 03:08:22;;;;;;;7.95;2.60;;;;;;;15.28;100.00;100310.19;4823209;29;20527;-73
2023/08/09 03:11:26;;;;;;;5.38;2.38;;;;;;;15.32;100.00;100301.97;4823238;29;20069;-73
2023/08/09 03:14:30;;;;;;;8.13;2.17;;;;;;;15.34;100.00;100304.47;4812060;29;20528;-73
2023/08/09 03:17:35;;;;;;;19.92;2.90;;;;;;;15.35;100.00;100308.78;4822461;29;20050;-73
2023/08/09 03:20:42;;;;;;;6.80;3.60;;;;;;;15.27;100.00;100314.63;4822513;29;20045;-74
2023/08/09 03:23:51;;;;;;;5.30;2.22;;;;;;;15.27;100.00;100311.16;4825702;29;20049;-74
2023/08/09 03:26:55;;;;;;;4.47;2.15;;;;;;;15.27;100.00;100312.00;4825292;29;20581;-72
2023/08/09 03:30:00;;;;;;;6.15;1.83;;;;;;;15.21;100.00;100315.09;4824133;29;20050;-72
2023/08/09 03:33:04;;;;;;;7.25;2.13;;;;;;;15.25;100.00;100319.19;4815542;29;20186;-73
2023/08/09 03:36:09;;;;;;;5.95;2.38;;;;;;;15.18;100.00;100309.22;4825057;29;20057;-73
2023/08/09 03:39:12;;;;;;;6.93;2.00;;;;;;;15.18;100.00;100311.84;4825434;29;20087;-72
2023/08/09 03:42:16;;;;;;;4.82;2.22;;;;;;;15.24;100.00;100314.84;4825498;29;20046;-73
2023/08/09 03:45:22;;;;;;;6.20;3.13;;;;;;;15.26;100.00;100301.59;4826542;29;20081;-73
2023/08/09 03:48:25;;;;;;;9.18;2.58;;;;;;;15.31;100.00;100304.69;4825554;29;20134;-73
2023/08/09 03:51:29;;;;;;;7.93;2.90;;;;;;;15.24;100.00;100300.84;4824205;29;20045;-72
2023/08/09 03:54:33;;;;;;;8.40;2.33;;;;;;;15.31;100.00;100302.06;4825251;29;20057;-72
2023/08/09 03:57:37;;;;;;;6.55;2.72;;;;;;;15.25;100.00;100305.16;4825301;29;20469;-72
2023/08/09 04:00:40;;;;;;;10.25;2.80;;;;;;;15.26;100.00;100309.47;4825970;29;20102;-73
2023/08/09 04:03:43;;;;;;;5.47;2.80;;;;;;;15.20;100.00;100312.56;4825067;29;20061;-73
2023/08/09 04:06:47;;;;;;;18.67;3.65;;;;;;;15.25;100.00;100316.56;4825850;29;21068;-72
2023/08/09 04:09:53;;;;;;;3.55;2.53;;;;;;;15.24;100.00;100329.81;4825841;29;20417;-73
2023/08/09 04:12:57;;;;;;;3.53;2.15;;;;;;;15.26;100.00;100327.91;4824837;29;20062;-73
2023/08/09 04:16:01;;;;;;;5.63;2.10;;;;;;;15.27;100.00;100322.53;4824753;29;20462;-73
2023/08/09 04:19:05;;;;;;;7.75;2.25;;;;;;;15.34;100.00;100320.25;4825663;29;20103;-72
2023/08/09 04:22:08;;;;;;;7.10;2.67;;;;;;;15.33;100.00;100313.31;4824287;29;20515;-71
2023/08/09 04:25:12;;;;;;;7.78;2.40;;;;;;;15.30;100.00;100314.38;4823738;29;20045;-71
2023/08/09 04:28:15;;;;;;;14.13;2.13;;;;;;;15.22;100.00;100322.03;4824351;29;20061;-72
2023/08/09 04:31:18;;;;;;;9.00;2.30;;;;;;;15.19;100.00;100321.41;4824342;29;20076;-72
2023/08/09 04:34:23;;;;;;;11.23;2.38;;;;;;;15.24;100.00;100324.56;4824425;29;20153;-72
2023/08/09 04:37:27;;;;;;;6.18;3.08;;;;;;;15.30;100.00;100326.72;4824442;29;20132;-72
2023/08/09 04:40:32;;;;;;;5.93;2.80;;;;;;;15.28;100.00;100331.25;4823921;29;20041;-73
2023/08/09 04:43:42;;;;;;;4.97;3.00;;;;;;;15.24;100.00;100337.72;4823937;29;20050;-73
2023/08/09 04:46:47;;;;;;;7.25;3.20;;;;;;;15.25;100.00;100337.63;4824181;29;20054;-72
2023/08/09 04:49:50;;;;;;;8.32;2.80;;;;;;;15.30;100.00;100343.38;4823907;29;20049;-72
2023/08/09 04:52:54;;;;;;;8.85;3.10;;;;;;;15.28;100.00;100352.34;4823919;29;20109;-72
2023/08/09 04:55:58;;;;;;;7.13;2.70;;;;;;;15.29;100.00;100354.03;4823907;29;20126;-72
2023/08/09 04:59:03;;;;;;;9.43;3.47;;;;;;;15.33;100.00;100355.47;4824039;29;20322;-72
2023/08/09 05:02:06;;;;;;;4.28;2.30;;;;;;;15.40;100.00;100361.97;4823036;29;20057;-71
2023/08/09 05:05:11;;;;;;;5.65;2.63;;;;;;;15.39;100.00;100359.47;4822738;29;20242;-72
2023/08/09 05:08:14;;;;;;;9.68;3.08;;;;;;;15.35;100.00;100359.69;4821077;29;20498;-72
2023/08/09 05:11:17;;;;;;;5.90;2.38;;;;;;;15.34;100.00;100368.53;4821734;29;20129;-71
2023/08/09 05:14:20;;;;;;;6.03;2.40;;;;;;;15.38;100.00;100379.69;4857774;29;20136;-72
2023/08/09 05:17:26;;;;;;;7.88;2.40;;;;;;;15.37;100.00;100380.63;4858387;29;20095;-71
2023/08/09 05:20:29;;;;;;;10.55;2.85;;;;;;;15.40;100.00;100385.66;4859563;29;20567;-71
2023/08/09 05:23:33;;;;;;;4.80;2.30;;;;;;;15.46;100.00;100389.66;4859900;29;20424;-71
2023/08/09 05:26:37;;;;;;;5.35;2.20;;;;;;;15.49;100.00;100387.63;4860264;29;20053;-72
2023/08/09 05:29:40;;;;;;;5.45;2.30;;;;;;;15.55;100.00;100395.06;4860120;29;20111;-76
2023/08/09 05:32:43;;;;;;;3.85;2.20;;;;;;;15.54;100.00;100397.84;4860055;29;20052;-72
2023/08/09 05:35:46;;;;;;;9.32;2.60;;;;;;;15.51;100.00;100401.53;4859809;29;20523;-71
2023/08/09 05:38:50;;;;;;;6.30;2.25;;;;;;;15.56;100.00;100396.75;4860469;29;20416;-72
2023/08/09 05:41:53;;;;;;;6.30;2.78;;;;;;;15.61;100.00;100392.94;4859562;29;20045;-72
2023/08/09 05:44:59;;;;;;;8.57;2.28;;;;;;;15.62;100.00;100403.34;4859793;29;20116;-72
2023/08/09 05:48:02;;;;;;;6.72;2.42;;;;;;;15.61;100.00;100400.84;4859924;29;20576;-74
2023/08/09 05:51:05;;;;;;;6.35;3.17;;;;;;;15.65;100.00;100410.19;4858493;29;20154;-72
2023/08/09 05:54:09;;;;;;;8.90;2.85;;;;;;;15.69;100.00;100406.41;4848096;29;20469;-73
2023/08/09 06:01:31;;;;;;;6.80;2.70;;;;;;;15.61;100.00;100414.88;4859345;29;20055;-69
2023/08/09 06:04:35;;;;;;;8.73;3.22;;;;;;;15.58;100.00;100421.19;4859522;29;20053;-67
2023/08/09 06:07:41;;;;;;;11.15;2.45;;;;;;;15.66;100.00;100433.78;4858038;29;20052;-68
2023/08/09 06:10:48;;;;;;;6.97;1.90;;;;;;;15.73;100.00;100447.38;4858883;29;20395;-68
2023/08/09 06:13:51;;;;;;;8.25;1.95;;;;;;;15.75;100.00;100453.38;4824881;29;20184;-68
2023/08/09 06:16:56;;;;;;;4.22;1.67;;;;;;;15.71;100.00;100460.69;4822360;29;20122;-68
2023/08/09 06:19:59;;;;;;;8.73;2.17;;;;;;;15.75;100.00;100467.41;4822102;29;20167;-68
2023/08/09 06:23:03;;;;;;;4.00;1.88;;;;;;;15.72;100.00;100466.78;4823008;29;20115;-70
2023/08/09 06:26:07;;;;;;;4.85;1.80;;;;;;;15.77;100.00;100480.47;4823515;29;20174;-67
2023/08/09 06:29:11;;;;;;;3.50;1.15;;;;;;;15.77;100.00;100491.88;4822416;29;20069;-67
2023/08/09 06:32:14;;;;;;;4.05;0.80;;;;;;;15.62;100.00;100494.75;4821892;29;20595;-67
2023/08/09 06:35:18;;;;;;;1.70;0.43;;;;;;;15.54;100.00;100496.19;4822672;29;20061;-68
2023/08/09 06:38:24;;;;;;;2.47;0.60;;;;;;;15.50;100.00;100497.34;4822940;29;20746;-68
2023/08/09 06:41:28;;;;;;;5.70;1.15;;;;;;;15.54;100.00;100498.81;4822489;29;20218;-67
2023/08/09 06:44:31;;;;;;;4.20;0.70;;;;;;;15.58;100.00;100505.53;4822475;29;20191;-73
2023/08/09 06:47:35;;;;;;;3.22;0.55;;;;;;;15.61;100.00;100507.09;4822807;29;20542;-72
2023/08/09 06:50:38;;;;;;;2.67;0.90;;;;;;;15.64;100.00;100516.59;4822461;29;20123;-72
2023/08/09 06:53:41;;;;;;;1.75;0.57;;;;;;;15.54;99.75;100505.88;4822672;29;20560;-73
2023/08/09 06:56:45;;;;;;;2.85;0.95;;;;;;;15.61;99.51;100512.38;4810762;29;20093;-74
2023/08/09 06:59:49;;;;;;;2.60;0.70;;;;;;;15.53;100.00;100517.34;4822469;29;20045;-74
2023/08/09 07:02:53;;;;;;;2.78;0.88;;;;;;;15.52;100.00;100513.88;4822884;29;20042;-75
2023/08/09 07:05:59;;;;;;;3.25;0.70;;;;;;;15.62;100.00;100523.75;4822509;29;20134;-76
2023/08/09 07:09:06;;;;;;;1.98;0.80;;;;;;;15.46;98.58;100524.88;4822414;29;20098;-75
2023/08/09 07:12:09;;;;;;;8.82;1.10;;;;;;;15.61;98.88;100532.63;4825621;29;20468;-73
2023/08/09 07:15:16;;;;;;;1.90;0.75;;;;;;;15.62;99.84;100540.41;4858600;29;20540;-75
2023/08/09 07:18:22;;;;;;;2.13;0.70;;;;;;;15.53;100.00;100546.34;4858712;29;20097;-75
2023/08/09 07:21:27;;;;;;;3.00;0.60;;;;;;;15.51;99.91;100564.91;4858667;29;20415;-75
2023/08/09 07:24:31;;;;;;;3.65;0.75;;;;;;;15.50;98.12;100563.22;4859218;29;20056;-74
2023/08/09 07:27:45;;;;;;;2.53;0.75;;;;;;;15.50;97.61;100570.28;4859047;29;20076;-75
2023/08/09 07:31:15;;;;;;;2.97;0.90;;;;;;;15.46;99.90;100572.31;4848726;29;20072;-73
2023/08/09 07:34:19;;;;;;;1.88;0.80;;;;;;;15.48;100.00;100580.94;4858940;29;20487;-75
2023/08/09 07:37:22;;;;;;;1.48;0.60;;;;;;;15.50;100.00;100581.66;4858785;29;20124;-74
2023/08/09 07:40:26;;;;;;;2.25;0.60;;;;;;;15.58;100.00;100589.88;4847654;29;20088;-75
2023/08/09 07:43:31;;;;;;;3.08;1.00;;;;;;;15.70;99.23;100574.16;4858940;29;20040;-75
2023/08/09 07:46:35;;;;;;;1.95;0.60;;;;;;;15.73;100.00;100584.44;4858664;29;20057;-76
2023/08/09 07:49:39;;;;;;;1.80;0.57;;;;;;;15.75;100.00;100582.56;4858353;29;20114;-73
2023/08/09 07:52:42;;;;;;;2.17;0.70;;;;;;;15.85;100.00;100588.84;4858291;29;20056;-74
2023/08/09 07:55:49;;;;;;;4.50;0.85;;;;;;;15.98;99.46;100602.78;4858454;29;20048;-72
2023/08/09 07:58:53;;;;;;;1.92;0.90;;;;;;;16.08;98.58;100607.41;4858511;29;20043;-72
2023/08/09 08:01:57;;;;;;;4.50;0.75;;;;;;;16.19;97.63;100602.19;4858427;29;20055;-72
2023/08/09 08:05:03;;;;;;;3.00;0.40;;;;;;;16.27;96.10;100602.44;4895847;29;20121;-73
2023/08/09 08:08:06;;;;;;;2.63;0.70;;;;;;;16.34;96.85;100601.03;4897078;29;20071;-74
2023/08/09 08:11:13;;;;;;;1.83;0.60;;;;;;;16.45;96.96;100598.41;4898806;29;20498;-72
2023/08/09 08:14:16;;;;;;;2.08;0.80;;;;;;;16.38;94.48;100604.28;4898695;29;20071;-72
2023/08/09 08:17:19;;;;;;;3.85;1.00;;;;;;;16.46;95.00;100612.44;4899286;29;20051;-71
2023/08/09 08:20:24;;;;;;;2.33;0.77;;;;;;;16.42;93.47;100616.28;4898690;29;20061;-73
2023/08/09 08:23:28;;;;;;;3.00;1.23;;;;;;;16.35;92.52;100615.91;4895895;29;20047;-72
2023/08/09 08:26:33;;;;;;;1.80;0.80;;;;;;;16.23;91.22;100619.47;4889154;29;20527;-71
2023/08/09 08:29:37;;;;;;;4.68;0.90;;;;;;;16.18;91.75;100621.63;4885705;29;20081;-71
2023/08/09 08:32:41;;;;;;;2.75;0.82;;;;;;;16.08;90.01;100620.59;4885063;29;20039;-70
2023/08/09 08:35:48;;;;;;;2.92;2.30;;;;;;;16.00;89.96;100623.81;4889087;29;20415;-70
2023/08/09 08:38:52;;;;;;;4.47;0.80;;;;;;;16.17;90.95;100625.19;4885146;29;20052;-74
2023/08/09 08:41:59;;;;;;;2.80;0.80;;;;;;;16.32;91.61;100624.06;4888182;29;20048;-75
2023/08/09 08:45:09;;;;;;;1.17;0.50;;;;;;;16.35;88.57;100626.47;4890385;29;20079;-71
2023/08/09 08:48:14;;;;;;;2.05;0.70;;;;;;;16.45;89.12;100624.81;4898259;29;20079;-72
2023/08/09 08:51:17;;;;;;;1.48;0.43;;;;;;;16.56;88.22;100631.06;4898495;29;20086;-70
2023/08/09 08:54:23;;;;;;;1.65;0.60;;;;;;;16.50;84.88;100632.41;4897828;29;20051;-82
2023/08/09 08:57:27;;;;;;;4.45;0.82;;;;;;;16.53;85.43;100637.44;4886188;29;20063;-77
2023/08/09 09:00:30;;;;;;;2.42;0.60;;;;;;;16.63;85.01;100638.44;4897598;29;20060;-80
2023/08/09 09:03:34;;;;;;;1.40;0.55;;;;;;;16.55;82.00;100642.59;4897743;29;20056;-81
2023/08/09 09:06:37;;;;;;;2.22;0.65;;;;;;;16.67;82.96;100637.22;4896234;29;20076;-74
2023/08/09 09:09:59;;;;;;;1.75;0.55;;;;;;;16.79;82.85;100638.13;4859904;29;20108;-74
2023/08/09 09:13:03;;;;;;;1.58;0.50;;;;;;;16.90;81.33;100638.13;4860399;29;20113;-74
2023/08/09 09:16:07;;;;;;;2.58;0.60;;;;;;;17.00;82.85;100645.34;4860543;29;20048;-79
2023/08/09 09:19:13;;;;;;;3.22;0.98;;;;;;;17.06;80.75;100644.88;4860527;29;20102;-78
2023/08/09 09:22:30;;;;;;;2.65;0.85;;;;;;;17.11;80.53;100642.72;4860849;29;20098;-80
2023/08/09 09:25:38;;;;;;;2.35;0.70;;;;;;;17.12;78.97;100639.13;4860673;29;20165;-80
2023/08/09 09:28:46;;;;;;;2.65;0.80;;;;;;;17.13;79.83;100635.50;4860504;29;20274;-79
2023/08/09 09:31:51;;;;;;;4.10;0.90;;;;;;;17.16;78.62;100637.91;4860259;29;20486;-78
2023/08/09 09:34:54;;;;;;;1.60;0.70;;;;;;;17.11;77.90;100637.44;4859756;29;20151;-77
2023/08/09 09:38:01;;;;;;;2.97;1.25;;;;;;;17.26;79.47;100633.63;4860033;29;20045;-78
2023/08/09 09:41:15;;;;;;;3.22;0.85;;;;;;;17.30;76.68;100637.69;4860220;29;20105;-78
2023/08/09 09:44:32;;;;;;;3.65;0.70;;;;;;;17.42;77.68;100635.84;4860214;29;20419;-78
2023/08/09 09:47:39;;;;;;;2.28;0.70;;;;;;;17.44;76.99;100650.63;4848411;29;20122;-78
2023/08/09 09:50:45;;;;;;;1.90;0.50;;;;;;;17.61;76.75;100632.59;4848486;29;20147;-77
2023/08/09 09:53:54;;;;;;;1.98;0.50;;;;;;;17.62;74.51;100639.59;4871002;29;20092;-78
2023/08/09 09:56:59;;;;;;;4.43;0.70;;;;;;;17.67;72.78;100632.09;4888267;29;20044;-79
2023/08/09 10:00:36;;;;;;;3.00;0.80;;;;;;;17.93;76.18;100634.47;4880902;29;20050;-78
2023/08/09 10:04:24;;;;;;;3.47;0.80;;;;;;;18.09;75.34;100633.13;4882992;29;20104;-76
2023/08/09 10:07:30;;;;;;;2.05;0.70;;;;;;;18.06;72.57;100635.16;4885504;29;20116;-77
2023/08/09 10:10:37;;;;;;;4.35;0.93;;;;;;;18.09;71.47;100634.91;4872830;29;20150;-79
2023/08/09 10:13:42;;;;;;;2.35;0.60;;;;;;;18.24;72.39;100638.94;4887019;29;20056;-77
2023/08/09 10:16:51;;;;;;;2.97;0.80;;;;;;;18.14;69.27;100635.38;4874979;29;20083;-78
2023/08/09 10:20:05;;;;;;;2.43;1.00;;;;;;;18.10;70.05;100645.38;4881978;29;20104;-78
2023/08/09 10:23:25;;;;;;;1.55;0.50;;;;;;;18.23;70.16;100647.84;4884565;29;20337;-77
2023/08/09 10:26:32;;;;;;;1.30;0.50;;;;;;;18.04;67.21;100645.03;4872877;29;20113;-76
2023/08/09 10:29:40;;;;;;;1.90;0.60;;;;;;;18.23;69.04;100631.97;4887584;29;20048;-77
2023/08/09 10:32:57;;;;;;;2.72;0.80;;;;;;;18.38;69.02;100629.88;4893100;29;20120;-76
2023/08/09 10:36:03;;;;;;;3.83;0.70;;;;;;;18.39;66.78;100631.53;4858036;29;20128;-74
2023/08/09 10:39:16;;;;;;;4.53;0.93;;;;;;;18.62;68.32;100634.91;4857760;29;20403;-77
2023/08/09 10:42:23;;;;;;;2.03;0.77;;;;;;;18.74;66.10;100638.38;4859600;29;20073;-78
2023/08/09 10:45:32;;;;;;;3.47;1.00;;;;;;;18.53;62.07;100641.81;4859099;29;20592;-75
2023/08/09 10:48:48;;;;;;;1.88;0.68;;;;;;;18.49;61.92;100643.03;4858709;29;20114;-77
2023/08/09 10:51:53;;;;;;;1.83;0.80;;;;;;;18.59;63.25;100651.06;4858147;29;20052;-77
2023/08/09 10:55:25;;;;;;;3.65;0.88;;;;;;;18.68;63.11;100650.28;4858891;29;20049;-77
2023/08/09 10:58:29;;;;;;;4.47;0.88;;;;;;;18.88;64.78;100645.13;4860380;29;20056;-79
2023/08/09 11:01:37;;;;;;;3.63;1.08;;;;;;;19.08;65.11;100660.19;4888085;29;20057;-78
2023/08/09 11:04:43;;;;;;;1.73;0.60;;;;;;;19.24;63.96;100655.22;4886956;29;20163;-79
2023/08/09 11:07:57;;;;;;;2.33;0.75;;;;;;;19.34;63.06;100649.13;4878328;29;20534;-77
2023/08/09 11:11:03;;;;;;;5.70;1.02;;;;;;;19.61;63.88;100659.13;4877342;29;20056;-78
2023/08/09 11:14:08;;;;;;;2.30;1.08;;;;;;;19.74;63.50;100657.91;4887183;29;20121;-78
2023/08/09 11:17:14;;;;;;;4.30;0.68;;;;;;;19.70;61.27;100656.53;4877336;29;20140;-75
2023/08/09 11:20:19;;;;;;;1.50;0.60;;;;;;;19.79;61.24;100664.66;4865333;29;20040;-73
2023/08/09 11:23:22;;;;;;;1.88;0.70;;;;;;;19.86;60.19;100665.78;4876751;29;20491;-76
2023/08/09 11:26:26;;;;;;;1.73;0.60;;;;;;;20.05;60.71;100659.66;4879141;29;20081;-75
2023/08/09 11:29:38;;;;;;;5.45;0.80;;;;;;;20.13;60.24;100652.69;4874733;29;20044;-76
2023/08/09 11:32:48;;;;;;;2.35;0.80;;;;;;;20.21;57.98;100644.84;4885536;29;20427;-76
2023/08/09 11:35:52;;;;;;;5.15;0.90;;;;;;;20.12;58.02;100653.66;4858246;29;20423;-74
2023/08/09 11:39:01;;;;;;;3.55;0.98;;;;;;;19.74;57.14;100652.63;4858127;29;20056;-74
2023/08/09 11:42:06;;;;;;;4.05;0.90;;;;;;;19.93;56.84;100651.81;4859806;29;20576;-75
2023/08/09 11:45:10;;;;;;;4.65;0.90;;;;;;;20.18;57.88;100661.06;4850190;29;20076;-72
2023/08/09 11:48:26;;;;;;;4.13;0.95;;;;;;;20.27;57.06;100653.25;4861660;29;20053;-72
2023/08/09 11:51:33;;;;;;;2.92;0.68;;;;;;;20.16;56.24;100659.53;4861864;29;20110;-78
2023/08/09 11:54:37;;;;;;;3.22;1.02;;;;;;;20.20;57.02;100659.13;4862185;29;20198;-75
2023/08/09 11:57:50;;;;;;;6.82;1.27;;;;;;;20.48;56.68;100661.91;4861913;29;20103;-81
2023/08/09 12:00:54;;;;;;;2.95;0.93;;;;;;;20.31;55.44;100665.28;4850715;29;20689;-75
2023/08/09 12:03:59;;;;;;;3.58;1.00;;;;;;;20.33;56.28;100656.19;4850069;29;20060;-78
2023/08/09 12:07:05;;;;;;;2.63;0.65;;;;;;;20.32;54.91;100666.94;4861433;29;20052;-76
2023/08/09 12:10:13;;;;;;;2.03;0.80;;;;;;;20.44;54.64;100660.50;4861401;29;20057;-72
2023/08/09 12:13:19;;;;;;;2.95;1.00;;;;;;;20.49;56.49;100673.38;4850233;29;20077;-79
2023/08/09 12:16:23;;;;;;;2.55;0.80;;;;;;;20.66;57.41;100670.03;4852352;29;20141;-78
2023/08/09 12:19:29;;;;;;;3.00;0.90;;;;;;;20.59;51.26;100683.03;4848724;29;20090;-74
2023/08/09 12:22:33;;;;;;;3.63;0.90;;;;;;;20.65;52.95;100685.13;4849667;29;20178;-80
2023/08/09 12:25:37;;;;;;;2.45;0.88;;;;;;;20.77;54.27;100687.63;4850353;29;20094;-79
2023/08/09 12:28:41;;;;;;;2.95;0.75;;;;;;;20.59;51.91;100688.34;4845671;29;20088;-77
2023/08/09 12:31:45;;;;;;;3.55;0.68;;;;;;;20.57;51.23;100692.97;4844395;29;20061;-80
2023/08/09 12:34:49;;;;;;;2.50;1.10;;;;;;;20.56;52.17;100691.28;4842717;29;20147;-73
2023/08/09 12:37:53;;;;;;;4.18;1.30;;;;;;;20.58;51.97;100694.66;4842673;29;20102;-73
2023/08/09 12:40:56;;;;;;;2.92;2.33;;;;;;;20.41;50.82;100706.78;4842727;29;20075;-69
2023/08/09 12:44:00;;;;;;;4.32;2.80;;;;;;;20.48;51.21;100708.88;4842648;29;20124;-75
2023/08/09 12:47:08;;;;;;;3.67;2.60;;;;;;;20.44;53.83;100710.97;4842516;29;20098;-75
2023/08/09 12:50:12;;;;;;;6.20;1.40;;;;;;;20.43;53.77;100715.44;4842363;29;20076;-73
2023/08/09 12:53:16;;;;;;;9.55;1.42;;;;;;;20.43;52.69;100714.63;4841573;29;20049;-79
2023/08/09 12:56:21;;;;;;;4.60;1.20;;;;;;;20.42;54.28;100715.56;4842226;29;20569;-77
2023/08/09 12:59:24;;;;;;;3.03;0.90;;;;;;;20.27;52.91;100716.97;4842363;29;20106;-68
2023/08/09 13:02:27;;;;;;;2.42;0.82;;;;;;;20.32;52.01;100720.03;4841759;29;20056;-75
2023/08/09 13:05:31;;;;;;;3.08;0.85;;;;;;;20.51;53.16;100712.13;4842013;29;20102;-77
2023/08/09 13:08:35;;;;;;;3.25;0.93;;;;;;;20.62;52.97;100714.66;4842212;29;20167;-73
2023/08/09 13:11:40;;;;;;;5.85;0.93;;;;;;;20.50;51.50;100720.22;4841569;29;20464;-78
2023/08/09 13:14:43;;;;;;;3.45;0.90;;;;;;;20.54;53.51;100724.28;4841301;29;20061;-78
2023/08/09 13:17:46;;;;;;;5.40;1.30;;;;;;;20.38;53.59;100727.47;4841083;29;20226;-76
2023/08/09 13:20:51;;;;;;;3.05;0.80;;;;;;;20.48;54.55;100730.94;4840453;29;20048;-78
2023/08/09 13:23:54;;;;;;;4.32;0.90;;;;;;;20.51;54.23;100725.41;4832840;29;20125;-78
2023/08/09 13:27:07;;;;;;;2.97;1.20;;;;;;;20.40;53.46;100728.16;4832665;29;20503;-79
2023/08/09 13:30:16;;;;;;;5.10;1.10;;;;;;;20.35;53.95;100725.09;4831922;29;20096;-78
2023/08/09 13:33:22;;;;;;;4.30;0.80;;;;;;;20.42;52.80;100732.38;4832434;29;20125;-79
2023/08/09 13:36:30;;;;;;;3.70;0.70;;;;;;;20.56;52.63;100733.81;4833079;29;20060;-79
2023/08/09 13:40:00;;;;;;;1.88;0.80;;;;;;;20.60;52.87;100729.88;4833237;29;20050;-78
2023/08/09 13:43:11;;;;;;;2.65;1.10;;;;;;;20.53;52.24;100734.06;4832877;29;20136;-79
2023/08/09 13:46:15;;;;;;;3.85;0.93;;;;;;;20.80;51.63;100735.19;4830548;29;20207;-79
2023/08/09 13:49:36;;;;;;;3.58;1.02;;;;;;;21.12;51.49;100733.06;4830960;29;20517;-79
2023/08/09 13:52:42;;;;;;;3.03;1.17;;;;;;;21.56;51.06;100728.03;4853285;29;20141;-79
2023/08/09 13:55:46;;;;;;;2.35;1.10;;;;;;;21.97;51.48;100731.19;4859194;29;20059;-82
2023/08/09 13:58:49;;;;;;;4.93;1.00;;;;;;;22.08;51.00;100732.81;4859652;29;20139;-81
2023/08/09 14:01:52;;;;;;;5.75;1.00;;;;;;;22.16;49.89;100724.94;4859559;29;20217;-81
2023/08/09 14:05:46;;;;;;;2.38;0.82;;;;;;;22.35;49.64;100734.63;4858994;29;20044;-81
2023/08/09 14:08:49;;;;;;;;;;;;;;;22.44;48.20;100719.56;4858218;29;20054;-81
2023/08/09 14:11:52;;;;;;;3.95;1.25;;;;;;;22.43;50.12;100716.06;4858724;29;19926;-81
2023/08/09 14:14:59;;;;;;;2.90;1.27;;;;;;;22.40;49.79;100721.69;4858358;29;20110;-79
2023/08/09 14:18:03;;;;;;;2.78;0.90;;;;;;;22.24;49.75;100722.38;4859011;29;20052;-80
2023/08/09 14:21:09;;;;;;;2.72;0.98;;;;;;;22.00;50.05;100730.88;4859461;29;20205;-81
2023/08/09 14:24:13;;;;;;;2.75;1.27;;;;;;;22.49;51.98;100715.47;4859358;29;20065;-81
2023/08/09 14:27:16;;;;;;;2.58;1.00;;;;;;;23.31;50.21;100724.06;4859232;29;20109;-81